createdAt,value
2022-11-28T00:01:03.773Z,7.60
2022-11-28T00:03:50.640Z,7.60
2022-11-28T00:06:39.401Z,7.60
2022-11-28T00:09:27.620Z,7.60
2022-11-28T00:12:14.549Z,7.60
2022-11-28T00:15:01.561Z,7.60
2022-11-28T00:17:48.264Z,7.60
2022-11-28T00:20:35.449Z,7.60
2022-11-28T00:23:22.351Z,7.70
2022-11-28T00:26:14.727Z,7.70
2022-11-28T00:29:02.670Z,7.60
2022-11-28T00:31:49.429Z,7.60
2022-11-28T00:34:36.744Z,7.60
2022-11-28T00:37:23.604Z,7.60
2022-11-28T00:40:11.254Z,7.60
2022-11-28T00:42:59.159Z,7.60
2022-11-28T00:45:46.080Z,7.60
2022-11-28T00:48:33.808Z,7.60
2022-11-28T00:51:23.910Z,7.60
2022-11-28T00:54:11.614Z,7.60
2022-11-28T00:56:58.556Z,7.60
2022-11-28T00:59:46.459Z,7.60
2022-11-28T01:02:33.198Z,7.60
2022-11-28T01:05:20.007Z,7.70
2022-11-28T01:08:06.727Z,7.70
2022-11-28T01:10:53.301Z,7.70
2022-11-28T01:13:41.089Z,7.70
2022-11-28T01:16:29.787Z,7.60
2022-11-28T01:19:16.370Z,7.60
2022-11-28T01:22:03.436Z,7.60
2022-11-28T01:24:50.392Z,7.60
2022-11-28T01:27:37.320Z,7.60
2022-11-28T01:30:24.403Z,7.60
2022-11-28T01:33:12.315Z,7.60
2022-11-28T01:36:01.166Z,7.60
2022-11-28T01:38:48.634Z,7.60
2022-11-28T01:41:35.614Z,7.60
2022-11-28T01:45:06.865Z,7.60
2022-11-28T01:47:59.562Z,7.60
2022-11-28T01:50:51.705Z,7.60
2022-11-28T01:53:43.752Z,7.50
2022-11-28T01:56:40.930Z,7.50
2022-11-28T01:59:33.844Z,7.50
2022-11-28T02:02:30.666Z,7.50
2022-11-28T02:05:19.986Z,7.50
2022-11-28T02:08:10.979Z,7.50
2022-11-28T02:11:27.063Z,7.50
2022-11-28T02:14:26.947Z,7.50
2022-11-28T02:17:25.451Z,7.50
2022-11-28T02:20:59.199Z,7.50
2022-11-28T02:24:33.902Z,7.50
2022-11-28T02:28:29.608Z,7.50
2022-11-28T02:31:43.923Z,7.50
2022-11-28T02:34:47.016Z,7.50
2022-11-28T02:37:44.124Z,7.50
2022-11-28T02:40:39.866Z,7.50
2022-11-28T02:43:36.313Z,7.50
2022-11-28T02:46:32.858Z,7.50
2022-11-28T02:49:27.876Z,7.50
2022-11-28T02:52:22.265Z,7.50
2022-11-28T02:55:10.537Z,7.50
2022-11-28T02:57:57.326Z,7.50
2022-11-28T03:00:48.333Z,7.50
2022-11-28T03:04:01.200Z,7.50
2022-11-28T03:07:01.240Z,7.50
2022-11-28T03:10:23.577Z,7.50
2022-11-28T03:13:26.099Z,7.50
2022-11-28T03:16:28.190Z,7.50
2022-11-28T03:19:27.023Z,7.50
2022-11-28T03:22:27.639Z,7.50
2022-11-28T03:25:26.100Z,7.60
2022-11-28T03:28:23.780Z,7.60
2022-11-28T03:31:16.815Z,7.60
2022-11-28T03:34:09.220Z,7.60
2022-11-28T03:37:02.448Z,7.60
2022-11-28T03:39:55.064Z,7.60
2022-11-28T03:42:50.532Z,7.60
2022-11-28T03:45:45.107Z,7.70
2022-11-28T03:48:38.138Z,7.70
2022-11-28T03:51:32.039Z,7.70
2022-11-28T03:54:28.994Z,7.70
2022-11-28T03:57:24.061Z,7.80
2022-11-28T04:00:15.114Z,7.80
2022-11-28T04:03:14.974Z,7.80
2022-11-28T04:06:12.875Z,7.90
2022-11-28T04:09:12.967Z,7.80
2022-11-28T04:12:11.808Z,7.80
2022-11-28T04:15:09.707Z,7.90
2022-11-28T04:18:03.843Z,7.90
2022-11-28T04:21:00.120Z,7.90
2022-11-28T04:23:50.251Z,7.90
2022-11-28T04:26:43.131Z,7.90
2022-11-28T04:29:37.126Z,7.90
2022-11-28T04:32:27.468Z,7.90
2022-11-28T04:35:23.882Z,7.90
2022-11-28T04:38:13.817Z,7.90
2022-11-28T04:41:11.625Z,7.90
2022-11-28T04:44:10.637Z,7.90
2022-11-28T04:46:58.881Z,7.90
2022-11-28T04:49:45.862Z,7.90
2022-11-28T04:52:45.744Z,7.90
2022-11-28T04:55:41.741Z,7.90
2022-11-28T04:58:36.902Z,7.80
2022-11-28T05:01:28.890Z,7.80
2022-11-28T05:04:17.182Z,7.80
2022-11-28T05:07:05.187Z,7.80
2022-11-28T05:09:55.603Z,7.80
2022-11-28T05:12:43.807Z,7.70
2022-11-28T05:15:30.483Z,7.70
2022-11-28T05:18:17.404Z,7.70
2022-11-28T05:21:08.045Z,7.70
2022-11-28T05:23:55.111Z,7.70
2022-11-28T05:28:22.480Z,7.70
2022-11-28T05:32:55.295Z,7.70
2022-11-28T05:37:22.023Z,7.70
2022-11-28T05:43:18.412Z,7.70
2022-11-28T05:46:07.908Z,7.70
2022-11-28T05:48:56.928Z,7.60
2022-11-28T05:51:44.880Z,7.70
2022-11-28T05:54:33.948Z,7.70
2022-11-28T05:57:21.113Z,7.70
2022-11-28T06:00:11.365Z,7.70
2022-11-28T06:03:01.492Z,7.70
2022-11-28T06:06:01.711Z,7.60
2022-11-28T06:09:26.797Z,7.60
2022-11-28T06:13:03.329Z,7.60
2022-11-28T06:16:20.704Z,7.60
2022-11-28T06:23:04.219Z,7.60
2022-11-28T06:26:28.248Z,7.60
2022-11-28T06:29:29.169Z,7.60
2022-11-28T06:32:31.403Z,7.60
2022-11-28T06:35:38.276Z,7.60
2022-11-28T06:38:47.355Z,7.60
2022-11-28T06:42:17.586Z,7.60
2022-11-28T06:45:30.237Z,7.60
2022-11-28T06:48:32.390Z,7.60
2022-11-28T06:54:59.988Z,7.70
2022-11-28T06:58:04.719Z,7.70
2022-11-28T07:01:17.607Z,7.70
2022-11-28T07:04:28.818Z,7.70
2022-11-28T07:07:50.243Z,7.80
2022-11-28T07:11:09.698Z,7.70
2022-11-28T07:14:05.936Z,7.70
2022-11-28T07:17:09.938Z,7.70
2022-11-28T07:20:15.587Z,7.80
2022-11-28T07:23:35.070Z,7.80
2022-11-28T07:26:32.510Z,7.80
2022-11-28T07:29:43.119Z,7.80
2022-11-28T07:32:52.711Z,7.70
2022-11-28T07:36:06.662Z,7.80
2022-11-28T07:39:15.698Z,7.70
2022-11-28T07:42:19.401Z,7.70
2022-11-28T07:46:17.303Z,7.70
2022-11-28T07:49:26.315Z,7.70
2022-11-28T07:53:25.582Z,7.70
2022-11-28T07:57:12.675Z,7.60
2022-11-28T08:03:29.274Z,7.70
2022-11-28T08:06:35.327Z,7.70
2022-11-28T08:09:55.333Z,7.60
2022-11-28T08:13:08.530Z,7.60
2022-11-28T08:16:31.139Z,7.60
2022-11-28T08:23:33.729Z,7.60
2022-11-28T08:26:50.722Z,7.60
2022-11-28T08:30:37.592Z,7.60
2022-11-28T08:38:11.985Z,7.60
2022-11-28T08:41:25.991Z,7.60
2022-11-28T08:45:03.003Z,7.60
2022-11-28T08:48:26.469Z,7.60
2022-11-28T08:58:55.518Z,7.60
2022-11-28T09:02:11.668Z,7.60
2022-11-28T09:06:11.463Z,7.60
2022-11-28T09:17:24.916Z,7.70
2022-11-28T09:24:46.304Z,7.70
2022-11-28T09:28:19.930Z,7.70
2022-11-28T09:32:18.024Z,7.70
2022-11-28T09:39:57.380Z,7.80
2022-11-28T09:43:42.754Z,7.80
2022-11-28T09:52:23.017Z,7.90
2022-11-28T09:56:12.474Z,7.90
2022-11-28T10:08:27.603Z,7.90
2022-11-28T10:12:18.465Z,7.90
2022-11-28T10:20:31.484Z,7.90
2022-11-28T10:24:17.031Z,8.00
2022-11-28T10:28:36.154Z,8.00
2022-11-28T10:32:44.064Z,8.10
2022-11-28T10:41:09.948Z,8.10
2022-11-28T10:49:16.924Z,8.10
2022-11-28T11:05:02.575Z,8.20
2022-11-28T11:13:20.965Z,8.30
2022-11-28T11:22:38.392Z,8.30
2022-11-28T11:25:29.092Z,8.30
2022-11-28T11:28:35.524Z,8.30
2022-11-28T11:31:26.571Z,8.30
2022-11-28T11:34:18.657Z,8.30
2022-11-28T11:37:30.233Z,8.30
2022-11-28T11:40:28.840Z,8.30
2022-11-28T11:43:27.830Z,8.40
2022-11-28T11:46:17.122Z,8.40
2022-11-28T11:49:03.785Z,8.40
2022-11-28T11:51:57.986Z,8.40
2022-11-28T11:54:59.250Z,8.40
2022-11-28T11:57:53.711Z,8.40
2022-11-28T12:00:42.152Z,8.40
2022-11-28T12:03:38.949Z,8.40
2022-11-28T12:06:31.526Z,8.50
2022-11-28T12:09:28.834Z,8.40
2022-11-28T12:12:23.437Z,8.50
2022-11-28T12:15:21.970Z,8.50
2022-11-28T12:18:27.695Z,8.50
2022-11-28T12:21:19.209Z,8.50
2022-11-28T12:24:13.175Z,8.50
2022-11-28T12:27:10.748Z,8.50
2022-11-28T12:30:22.387Z,8.50
2022-11-28T12:33:30.206Z,8.50
2022-11-28T12:36:27.836Z,8.50
2022-11-28T12:39:22.807Z,8.50
2022-11-28T12:42:30.413Z,8.60
2022-11-28T12:45:43.808Z,8.60
2022-11-28T12:48:53.604Z,8.60
2022-11-28T12:51:58.358Z,8.60
2022-11-28T12:55:12.452Z,8.60
2022-11-28T12:58:10.286Z,8.60
2022-11-28T13:01:14.952Z,8.60
2022-11-28T13:04:15.469Z,8.60
2022-11-28T13:07:13.893Z,8.60
2022-11-28T13:10:16.126Z,8.60
2022-11-28T13:13:09.868Z,8.60
2022-11-28T13:16:13.086Z,8.60
2022-11-28T13:19:12.001Z,8.60
2022-11-28T13:22:11.763Z,8.60
2022-11-28T13:25:10.793Z,8.60
2022-11-28T13:28:08.843Z,8.50
2022-11-28T13:31:06.769Z,8.50
2022-11-28T13:33:55.626Z,8.50
2022-11-28T13:40:08.889Z,8.50
2022-11-28T13:43:07.678Z,8.50
2022-11-28T13:45:55.977Z,8.50
2022-11-28T13:49:15.564Z,8.40
2022-11-28T13:52:42.957Z,8.50
2022-11-28T13:55:44.601Z,8.50
2022-11-28T13:58:42.427Z,8.50
2022-11-28T14:01:31.475Z,8.50
2022-11-28T14:04:20.356Z,8.50
2022-11-28T14:07:08.736Z,8.50
2022-11-28T14:10:16.227Z,8.50
2022-11-28T14:13:23.989Z,8.50
2022-11-28T14:16:27.048Z,8.50
2022-11-28T14:19:29.516Z,8.50
2022-11-28T14:22:34.640Z,8.50
2022-11-28T14:25:28.553Z,8.50
2022-11-28T14:28:25.130Z,8.50
2022-11-28T14:31:31.684Z,8.60
2022-11-28T14:34:42.593Z,8.60
2022-11-28T14:37:57.562Z,8.60
2022-11-28T14:41:11.757Z,8.60
2022-11-28T14:44:50.630Z,8.60
2022-11-28T14:47:42.433Z,8.70
2022-11-28T14:50:59.345Z,8.70
2022-11-28T14:53:50.576Z,8.70
2022-11-28T14:56:37.212Z,8.70
2022-11-28T14:59:33.864Z,8.80
2022-11-28T15:03:02.924Z,8.80
2022-11-28T15:05:53.317Z,8.80
2022-11-28T15:09:03.468Z,8.80
2022-11-28T15:12:12.336Z,8.80
2022-11-28T15:14:59.403Z,8.80
2022-11-28T15:17:53.470Z,8.80
2022-11-28T15:20:48.415Z,8.80
2022-11-28T15:23:38.670Z,8.80
2022-11-28T15:26:30.923Z,8.70
2022-11-28T15:29:22.489Z,8.70
2022-11-28T15:32:16.401Z,8.70
2022-11-28T15:35:12.542Z,8.70
2022-11-28T15:38:00.227Z,8.70
2022-11-28T15:40:52.564Z,8.70
2022-11-28T15:43:44.901Z,8.70
2022-11-28T15:46:35.118Z,8.70
2022-11-28T15:49:30.205Z,8.70
2022-11-28T15:52:19.085Z,8.70
2022-11-28T15:55:17.176Z,8.70
2022-11-28T15:58:23.335Z,8.70
2022-11-28T16:01:18.546Z,8.60
2022-11-28T16:04:11.984Z,8.60
2022-11-28T16:07:01.993Z,8.60
2022-11-28T16:10:03.476Z,8.60
2022-11-28T16:12:50.684Z,8.60
2022-11-28T16:15:38.835Z,8.60
2022-11-28T16:18:28.564Z,8.60
2022-11-28T16:21:15.704Z,8.60
2022-11-28T16:24:04.147Z,8.60
2022-11-28T16:27:01.079Z,8.60
2022-11-28T16:29:50.368Z,8.50
2022-11-28T16:32:40.129Z,8.50
2022-11-28T16:35:31.940Z,8.50
2022-11-28T16:38:25.446Z,8.50
2022-11-28T16:41:23.958Z,8.50
2022-11-28T16:44:17.918Z,8.50
2022-11-28T16:47:08.747Z,8.50
2022-11-28T16:50:24.717Z,8.50
2022-11-28T16:53:44.795Z,8.50
2022-11-28T16:56:44.935Z,8.50
2022-11-28T16:59:32.819Z,8.50
2022-11-28T17:02:23.144Z,8.50
2022-11-28T17:05:10.855Z,8.50
2022-11-28T17:07:57.654Z,8.50
2022-11-28T17:10:44.209Z,8.50
2022-11-28T17:13:31.269Z,8.50
2022-11-28T17:16:23.203Z,8.50
2022-11-28T17:19:10.034Z,8.50
2022-11-28T17:22:01.195Z,8.60
2022-11-28T17:24:49.575Z,8.60
2022-11-28T17:27:36.444Z,8.60
2022-11-28T17:30:23.706Z,8.60
2022-11-28T17:33:16.400Z,8.60
2022-11-28T17:36:04.718Z,8.60
2022-11-28T17:38:51.299Z,8.60
2022-11-28T17:41:38.042Z,8.60
2022-11-28T17:44:27.443Z,8.60
2022-11-28T17:47:14.081Z,8.60
2022-11-28T17:50:01.878Z,8.60
2022-11-28T17:52:48.674Z,8.70
2022-11-28T17:55:35.078Z,8.70
2022-11-28T17:58:24.346Z,8.70
2022-11-28T18:01:12.581Z,8.70
2022-11-28T18:03:59.828Z,8.70
2022-11-28T18:06:48.759Z,8.70
2022-11-28T18:09:40.733Z,8.70
2022-11-28T18:12:27.670Z,8.70
2022-11-28T18:15:14.320Z,8.70
2022-11-28T18:18:01.175Z,8.70
2022-11-28T18:20:48.233Z,8.80
2022-11-28T18:23:38.456Z,8.80
2022-11-28T18:26:27.029Z,8.80
2022-11-28T18:29:13.917Z,8.80
2022-11-28T18:32:00.699Z,8.80
2022-11-28T18:34:48.338Z,8.80
2022-11-28T18:37:35.120Z,8.80
2022-11-28T18:40:23.491Z,8.70
2022-11-28T18:43:10.403Z,8.70
2022-11-28T18:45:56.904Z,8.70
2022-11-28T18:48:46.521Z,8.70
2022-11-28T18:51:35.515Z,8.80
2022-11-28T18:54:22.187Z,8.80
2022-11-28T18:57:10.480Z,8.80
2022-11-28T18:59:57.547Z,8.80
2022-11-28T19:02:44.586Z,8.80
2022-11-28T19:05:36.400Z,8.70
2022-11-28T19:08:25.759Z,8.80
2022-11-28T19:11:15.562Z,8.80
2022-11-28T19:14:04.092Z,8.80
2022-11-28T19:16:53.539Z,8.80
2022-11-28T19:19:41.321Z,8.80
2022-11-28T19:22:31.469Z,8.80
2022-11-28T19:25:18.370Z,8.80
2022-11-28T19:28:06.043Z,8.80
2022-11-28T19:30:54.186Z,8.90
2022-11-28T19:33:40.655Z,8.90
2022-11-28T19:36:28.699Z,8.90
2022-11-28T19:39:18.627Z,8.90
2022-11-28T19:42:05.644Z,8.90
2022-11-28T19:44:52.268Z,8.90
2022-11-28T19:47:40.425Z,8.90
2022-11-28T19:50:27.013Z,8.90
2022-11-28T19:53:13.406Z,8.90
2022-11-28T19:56:04.805Z,8.90
2022-11-28T19:58:51.788Z,8.90
2022-11-28T20:01:39.957Z,8.90
2022-11-28T20:04:27.855Z,9.00
2022-11-28T20:07:14.737Z,9.00
2022-11-28T20:10:01.514Z,9.00
2022-11-28T20:12:48.484Z,9.00
2022-11-28T20:15:36.462Z,8.90
2022-11-28T20:18:22.989Z,8.90
2022-11-28T20:21:15.449Z,8.90
2022-11-28T20:24:08.131Z,8.90
2022-11-28T20:26:56.775Z,9.00
2022-11-28T20:29:43.763Z,8.90
2022-11-28T20:32:31.117Z,9.00
2022-11-28T20:35:19.061Z,8.90
2022-11-28T20:38:07.173Z,9.00
2022-11-28T20:41:01.842Z,9.00
2022-11-28T20:43:49.408Z,8.90
2022-11-28T20:46:54.384Z,8.90
2022-11-28T20:49:41.309Z,8.90
2022-11-28T20:52:28.138Z,8.90
2022-11-28T20:55:17.642Z,8.90
2022-11-28T20:58:04.321Z,8.90
2022-11-28T21:00:51.174Z,8.90
2022-11-28T21:03:37.800Z,8.90
2022-11-28T21:06:24.306Z,9.00
2022-11-28T21:09:12.640Z,9.00
2022-11-28T21:12:00.553Z,9.00
2022-11-28T21:14:47.074Z,9.00
2022-11-28T21:17:34.123Z,9.00
2022-11-28T21:20:20.968Z,9.00
2022-11-28T21:23:07.843Z,9.00
2022-11-28T21:25:54.486Z,9.00
2022-11-28T21:28:44.739Z,9.00
2022-11-28T21:31:34.637Z,9.00
2022-11-28T21:34:22.283Z,9.00
2022-11-28T21:37:08.877Z,9.00
2022-11-28T21:39:55.801Z,9.00
2022-11-28T21:42:42.561Z,9.00
2022-11-28T21:45:30.424Z,9.00
2022-11-28T21:48:17.127Z,9.00
2022-11-28T21:51:05.514Z,9.00
2022-11-28T21:53:52.698Z,9.00
2022-11-28T21:56:39.596Z,9.00
2022-11-28T21:59:26.319Z,9.00
2022-11-28T22:02:16.157Z,9.00
2022-11-28T22:05:02.617Z,9.00
2022-11-28T22:07:49.347Z,9.00
2022-11-28T22:10:38.145Z,9.00
2022-11-28T22:13:24.647Z,9.00
2022-11-28T22:16:14.863Z,9.00
2022-11-28T22:19:02.844Z,9.00
2022-11-28T22:21:52.417Z,9.00
2022-11-28T22:24:41.186Z,9.00
2022-11-28T22:27:32.791Z,9.00
2022-11-28T22:30:19.448Z,9.00
2022-11-28T22:33:06.066Z,9.00
2022-11-28T22:35:53.835Z,9.00
2022-11-28T22:38:41.324Z,9.00
2022-11-28T22:41:29.790Z,9.00
2022-11-28T22:44:16.590Z,9.00
2022-11-28T22:47:03.361Z,9.00
2022-11-28T22:49:49.844Z,9.00
2022-11-28T22:52:38.223Z,9.00
2022-11-28T22:55:24.764Z,9.00
2022-11-28T22:58:11.600Z,9.10
2022-11-28T23:00:58.349Z,9.10
2022-11-28T23:03:45.916Z,9.10
2022-11-28T23:06:35.281Z,9.10
2022-11-28T23:09:23.299Z,9.00
2022-11-28T23:12:09.976Z,9.00
2022-11-28T23:14:56.575Z,9.00
2022-11-28T23:17:43.208Z,9.00
2022-11-28T23:20:29.916Z,9.00
2022-11-28T23:23:16.301Z,9.00
2022-11-28T23:26:10.147Z,9.00
2022-11-28T23:28:59.683Z,9.00
2022-11-28T23:31:48.045Z,9.00
2022-11-28T23:34:34.521Z,9.00
2022-11-28T23:37:21.052Z,9.00
2022-11-28T23:40:09.477Z,9.00
2022-11-28T23:42:57.163Z,9.00
2022-11-28T23:45:43.913Z,9.00
2022-11-28T23:48:30.727Z,9.00
2022-11-28T23:51:22.292Z,9.00
2022-11-28T23:54:10.428Z,9.00
2022-11-28T23:56:56.788Z,9.00
2022-11-28T23:59:44.717Z,9.00
